Terminal Aerodrome Forecast
Issued by NWS

Home | Current Version | Previous Version | Text Only | Print | Product List | Glossary On
Versions: 1 2 3 4 5 6 7 8 9 10 11 12 13 14 15
000
FTUS43 KJKL 232339
TAFSME
TAF
KSME 232339Z 2400/2424 VRB04KT P6SM VCSH SCT050
     FM240700 VRB03KT 5SM -SHRA BR BKN020
     FM241200 23006KT 5SM -SHRA BR VCTS SCT030CB BKN040=

USA.gov is the U.S. government's official web portal to all federal, state and local government web resources and services.